Terminal Aerodrome Forecast
Issued by NWS

Home | Current Version | Previous Version | Text Only | Print | Product List | Glossary On
Versions: 1 2 3 4 5 6 7 8 9 10 11 12 13 14
000
FTUS43 KPAH 170521
TAFCGI
TAF
KCGI 170521Z 1706/1806 19010KT P6SM SCT050 OVC130
     FM171200 17008KT 4SM -RA SCT015 OVC030
      TEMPO 1713/1715 2SM RA BR OVC015
     FM171800 19007KT P6SM SCT020 OVC040
     FM180100 18004KT 5SM BR OVC035=

USA.gov is the U.S. government's official web portal to all federal, state and local government web resources and services.